createdAt,value
2019-02-22T03:10:54.213Z,99.90
2019-02-22T08:53:27.517Z,99.90
2019-02-22T09:35:34.398Z,99.90
2019-02-22T09:38:03.558Z,99.90
2019-02-22T09:40:32.449Z,99.90
2019-02-22T09:43:01.442Z,99.90
2019-02-22T09:45:30.438Z,99.90
2019-02-22T09:47:59.326Z,99.90
2019-02-22T09:50:28.232Z,99.90
2019-02-22T09:52:57.211Z,99.90
2019-02-22T09:55:26.101Z,99.90
2019-02-22T09:57:54.994Z,99.90
2019-02-22T10:00:23.991Z,99.90
2019-02-22T10:02:52.977Z,99.90
2019-02-22T10:05:21.868Z,99.90
2019-02-22T10:07:50.759Z,99.90
2019-02-22T10:10:19.652Z,99.90
2019-02-22T10:12:48.642Z,99.90
2019-02-22T10:15:17.636Z,99.90
2019-02-22T10:17:46.528Z,99.90
2019-02-22T10:20:15.423Z,99.90
2019-02-22T10:22:44.448Z,99.90
2019-02-22T10:25:13.301Z,99.90
2019-02-22T10:27:42.194Z,99.90
2019-02-22T10:30:13.505Z,99.90
2019-02-22T10:32:42.433Z,99.90
2019-02-22T10:35:11.426Z,99.90
2019-02-22T10:37:40.421Z,99.90
2019-02-22T10:40:11.142Z,99.90
2019-02-22T10:42:40.044Z,99.90
2019-02-22T10:45:11.374Z,99.90
2019-02-22T10:47:40.284Z,99.90
2019-02-22T10:50:10.300Z,99.90
2019-02-22T10:52:39.296Z,99.90
2019-02-22T10:55:11.357Z,99.90
2019-02-22T10:57:40.255Z,99.90
2019-02-22T11:00:16.694Z,99.90
2019-02-22T11:02:45.607Z,99.90
2019-02-22T11:05:14.606Z,99.90
2019-02-22T11:07:43.597Z,99.90
2019-02-22T11:22:38.989Z,99.90
2019-02-22T11:25:10.848Z,99.90
2019-02-22T11:27:39.739Z,99.90
2019-02-22T11:30:11.702Z,99.90
2019-02-22T11:32:40.541Z,99.90
2019-02-22T11:35:11.019Z,99.90
2019-02-22T11:37:46.117Z,99.90
2019-02-22T11:40:15.354Z,99.90
2019-02-22T11:42:44.246Z,99.90
2019-02-22T11:45:13.138Z,99.90
2019-02-22T11:47:42.026Z,99.90
2019-02-22T11:50:13.202Z,99.90
2019-02-22T11:52:42.270Z,99.90
2019-02-22T11:55:12.693Z,99.90
2019-02-22T11:57:42.285Z,99.90
2019-02-22T12:00:15.504Z,99.90
2019-02-22T12:02:45.290Z,99.90
2019-02-22T12:05:15.661Z,99.90
2019-02-22T12:07:44.623Z,99.90
2019-02-22T12:10:14.480Z,99.90
2019-02-22T12:12:43.426Z,99.90
2019-02-22T12:15:14.333Z,99.90
2019-02-22T12:17:43.255Z,99.90
2019-02-22T12:20:13.562Z,99.90
2019-02-22T12:22:42.573Z,99.90
2019-02-22T12:55:08.906Z,99.90
2019-02-22T12:57:37.799Z,99.90
2019-02-22T13:00:14.674Z,99.90
2019-02-22T13:02:43.564Z,99.90
2019-02-22T13:05:18.495Z,99.90
2019-02-22T13:07:47.489Z,99.90
2019-02-22T13:10:16.380Z,99.90
2019-02-22T13:12:45.195Z,99.90
2019-02-22T13:15:33.416Z,99.90
2019-02-22T13:18:03.095Z,99.90
2019-02-22T13:20:32.629Z,99.90
2019-02-22T17:53:48.966Z,99.90
2019-02-22T17:56:18.456Z,99.90
2019-02-22T17:58:47.305Z,99.90
2019-02-22T18:01:16.179Z,99.90
2019-02-22T18:03:45.234Z,99.90
2019-02-22T18:06:14.116Z,98.70
2019-02-22T18:08:42.936Z,99.90
2019-02-22T18:11:11.916Z,97.30
2019-02-22T18:13:40.783Z,98.60
2019-02-22T18:16:09.609Z,98.20
2019-02-22T18:18:38.675Z,97.50
2019-02-22T18:21:07.766Z,98.50
2019-02-22T18:23:36.656Z,98.50
2019-02-22T18:26:05.649Z,99.30
